Alderton, Washington
Current Conditions -  °F | °C
As of 4:09 AM on Saturday 25 Oct 2014 (Local Time) from KTCM Reporting Station
Haze Haze  
Wind Chill: 46°   Ceiling: 300
Heat Index: 46°   Visibility: 0.75mi
Dew Point: 46°   Wind: 2mph
Humidity: 100%   Direction: 230°SW
Pressure: 29.56"   Gusts: NA
Location:  47.1905°N, 122.328°W
Report Text: KTCM 251109Z AUTO 23002KT 3/4SM R34/3000FT BR VV003 08/08 A2956 RMK AO2 VIS 3/4V1 1/2 $
Loading
Personal Weather Stations






























Interactive Weather Map
Tropical Storm Tracking
New forecast layout! Learn more

10-Day Weather Forecast

Advertisements
Track Severe Weather on mobile